sensor_id;sensor_type;location;lat;lon;timestamp;P1;durP1;ratioP1;P2;durP2;ratioP2
52742;SDS011;55583;53.012;6.556;2022-09-12T00:00:39;17.15;;;11.68;;
52742;SDS011;55583;53.012;6.556;2022-09-12T00:03:05;12.00;;;10.05;;
52742;SDS011;55583;53.012;6.556;2022-09-12T00:05:30;22.27;;;9.68;;
52742;SDS011;55583;53.012;6.556;2022-09-12T00:07:57;13.95;;;10.80;;
52742;SDS011;55583;53.012;6.556;2022-09-12T00:10:23;14.00;;;9.52;;
52742;SDS011;55583;53.012;6.556;2022-09-12T00:12:50;14.10;;;9.45;;
52742;SDS011;55583;53.012;6.556;2022-09-12T00:15:16;17.02;;;11.32;;
52742;SDS011;55583;53.012;6.556;2022-09-12T00:17:42;19.02;;;14.13;;
52742;SDS011;55583;53.012;6.556;2022-09-12T00:20:08;13.77;;;11.35;;
52742;SDS011;55583;53.012;6.556;2022-09-12T00:22:34;15.50;;;12.60;;
52742;SDS011;55583;53.012;6.556;2022-09-12T00:25:01;14.63;;;13.07;;
52742;SDS011;55583;53.012;6.556;2022-09-12T00:27:26;18.25;;;13.95;;
52742;SDS011;55583;53.012;6.556;2022-09-12T00:29:52;21.40;;;14.93;;
52742;SDS011;55583;53.012;6.556;2022-09-12T00:32:18;21.65;;;15.55;;
52742;SDS011;55583;53.012;6.556;2022-09-12T00:34:45;23.80;;;17.63;;
52742;SDS011;55583;53.012;6.556;2022-09-12T00:37:10;28.88;;;21.08;;
52742;SDS011;55583;53.012;6.556;2022-09-12T00:39:36;22.83;;;17.50;;
52742;SDS011;55583;53.012;6.556;2022-09-12T00:42:02;25.15;;;19.48;;
52742;SDS011;55583;53.012;6.556;2022-09-12T00:46:56;22.23;;;16.88;;
52742;SDS011;55583;53.012;6.556;2022-09-12T00:52:12;20.70;;;16.13;;
52742;SDS011;55583;53.012;6.556;2022-09-12T00:54:42;17.40;;;14.75;;
52742;SDS011;55583;53.012;6.556;2022-09-12T00:57:13;17.30;;;14.85;;
52742;SDS011;55583;53.012;6.556;2022-09-12T00:59:42;18.48;;;14.02;;
52742;SDS011;55583;53.012;6.556;2022-09-12T01:02:11;21.88;;;14.10;;
52742;SDS011;55583;53.012;6.556;2022-09-12T01:04:37;24.08;;;15.25;;
52742;SDS011;55583;53.012;6.556;2022-09-12T01:07:05;27.63;;;17.10;;
52742;SDS011;55583;53.012;6.556;2022-09-12T01:09:31;19.35;;;15.18;;
52742;SDS011;55583;53.012;6.556;2022-09-12T01:11:57;22.45;;;16.55;;
52742;SDS011;55583;53.012;6.556;2022-09-12T01:14:25;28.80;;;19.90;;
52742;SDS011;55583;53.012;6.556;2022-09-12T01:16:51;28.02;;;17.95;;
52742;SDS011;55583;53.012;6.556;2022-09-12T01:22:33;24.80;;;14.98;;
52742;SDS011;55583;53.012;6.556;2022-09-12T01:31:11;29.92;;;20.35;;
52742;SDS011;55583;53.012;6.556;2022-09-12T01:42:33;31.70;;;20.85;;
52742;SDS011;55583;53.012;6.556;2022-09-12T01:45:17;36.35;;;24.05;;
52742;SDS011;55583;53.012;6.556;2022-09-12T01:47:55;32.90;;;21.65;;
52742;SDS011;55583;53.012;6.556;2022-09-12T01:50:27;32.50;;;22.05;;
52742;SDS011;55583;53.012;6.556;2022-09-12T01:53:00;26.55;;;20.08;;
52742;SDS011;55583;53.012;6.556;2022-09-12T01:55:31;25.50;;;17.30;;
52742;SDS011;55583;53.012;6.556;2022-09-12T01:58:02;30.02;;;19.65;;
52742;SDS011;55583;53.012;6.556;2022-09-12T02:00:31;30.85;;;20.27;;
52742;SDS011;55583;53.012;6.556;2022-09-12T02:03:08;32.05;;;21.00;;
52742;SDS011;55583;53.012;6.556;2022-09-12T02:05:38;30.00;;;21.40;;
52742;SDS011;55583;53.012;6.556;2022-09-12T02:08:09;36.90;;;20.00;;
52742;SDS011;55583;53.012;6.556;2022-09-12T02:10:46;29.27;;;21.55;;
52742;SDS011;55583;53.012;6.556;2022-09-12T02:13:21;30.98;;;21.48;;
52742;SDS011;55583;53.012;6.556;2022-09-12T02:15:53;39.97;;;22.13;;
52742;SDS011;55583;53.012;6.556;2022-09-12T02:18:27;38.58;;;25.25;;
52742;SDS011;55583;53.012;6.556;2022-09-12T02:20:56;42.30;;;28.23;;
52742;SDS011;55583;53.012;6.556;2022-09-12T02:23:23;38.30;;;27.10;;
52742;SDS011;55583;53.012;6.556;2022-09-12T02:25:53;46.28;;;28.70;;
52742;SDS011;55583;53.012;6.556;2022-09-12T02:28:41;43.03;;;26.13;;
52742;SDS011;55583;53.012;6.556;2022-09-12T02:39:19;67.05;;;32.90;;
52742;SDS011;55583;53.012;6.556;2022-09-12T02:41:46;47.65;;;28.17;;
52742;SDS011;55583;53.012;6.556;2022-09-12T02:44:14;72.43;;;36.83;;
52742;SDS011;55583;53.012;6.556;2022-09-12T02:46:41;54.00;;;33.60;;
52742;SDS011;55583;53.012;6.556;2022-09-12T02:49:10;60.28;;;35.05;;
52742;SDS011;55583;53.012;6.556;2022-09-12T02:51:37;64.35;;;33.97;;
52742;SDS011;55583;53.012;6.556;2022-09-12T02:54:02;60.25;;;34.10;;
52742;SDS011;55583;53.012;6.556;2022-09-12T02:56:30;69.28;;;36.08;;
52742;SDS011;55583;53.012;6.556;2022-09-12T02:58:59;84.65;;;41.17;;
52742;SDS011;55583;53.012;6.556;2022-09-12T03:01:32;85.85;;;40.78;;
52742;SDS011;55583;53.012;6.556;2022-09-12T03:04:19;91.63;;;42.25;;
52742;SDS011;55583;53.012;6.556;2022-09-12T03:06:58;79.47;;;38.92;;
52742;SDS011;55583;53.012;6.556;2022-09-12T03:12:12;93.50;;;41.85;;
52742;SDS011;55583;53.012;6.556;2022-09-12T03:17:42;77.03;;;42.10;;
52742;SDS011;55583;53.012;6.556;2022-09-12T03:23:36;86.63;;;39.53;;
52742;SDS011;55583;53.012;6.556;2022-09-12T03:28:48;110.57;;;48.30;;
52742;SDS011;55583;53.012;6.556;2022-09-12T03:31:15;121.88;;;47.10;;
52742;SDS011;55583;53.012;6.556;2022-09-12T03:33:42;118.03;;;50.55;;
52742;SDS011;55583;53.012;6.556;2022-09-12T03:36:13;144.93;;;52.97;;
52742;SDS011;55583;53.012;6.556;2022-09-12T03:38:57;129.35;;;52.70;;
52742;SDS011;55583;53.012;6.556;2022-09-12T03:41:23;113.53;;;47.88;;
52742;SDS011;55583;53.012;6.556;2022-09-12T03:43:49;106.90;;;48.10;;
52742;SDS011;55583;53.012;6.556;2022-09-12T03:46:14;130.77;;;51.80;;
52742;SDS011;55583;53.012;6.556;2022-09-12T03:48:40;116.50;;;49.30;;
52742;SDS011;55583;53.012;6.556;2022-09-12T03:51:07;148.40;;;53.28;;
52742;SDS011;55583;53.012;6.556;2022-09-12T03:53:33;109.35;;;48.55;;
52742;SDS011;55583;53.012;6.556;2022-09-12T03:55:59;89.45;;;46.28;;
52742;SDS011;55583;53.012;6.556;2022-09-12T03:58:30;169.07;;;56.22;;
52742;SDS011;55583;53.012;6.556;2022-09-12T04:00:56;103.55;;;44.55;;
52742;SDS011;55583;53.012;6.556;2022-09-12T04:03:22;91.75;;;39.97;;
52742;SDS011;55583;53.012;6.556;2022-09-12T04:05:47;111.03;;;46.75;;
52742;SDS011;55583;53.012;6.556;2022-09-12T04:08:13;138.80;;;49.08;;
52742;SDS011;55583;53.012;6.556;2022-09-12T04:10:39;109.07;;;45.17;;
52742;SDS011;55583;53.012;6.556;2022-09-12T04:13:05;144.55;;;55.22;;
52742;SDS011;55583;53.012;6.556;2022-09-12T04:15:30;134.15;;;52.65;;
52742;SDS011;55583;53.012;6.556;2022-09-12T04:17:56;131.60;;;47.75;;
52742;SDS011;55583;53.012;6.556;2022-09-12T04:20:22;143.82;;;53.20;;
52742;SDS011;55583;53.012;6.556;2022-09-12T04:22:47;113.00;;;48.35;;
52742;SDS011;55583;53.012;6.556;2022-09-12T04:25:13;112.85;;;43.17;;
52742;SDS011;55583;53.012;6.556;2022-09-12T04:27:41;140.70;;;51.25;;
52742;SDS011;55583;53.012;6.556;2022-09-12T04:30:07;129.13;;;52.42;;
52742;SDS011;55583;53.012;6.556;2022-09-12T04:32:33;98.03;;;47.65;;
52742;SDS011;55583;53.012;6.556;2022-09-12T04:34:58;118.25;;;47.85;;
52742;SDS011;55583;53.012;6.556;2022-09-12T04:37:24;138.48;;;50.22;;
52742;SDS011;55583;53.012;6.556;2022-09-12T04:39:50;117.53;;;49.17;;
52742;SDS011;55583;53.012;6.556;2022-09-12T04:42:20;93.28;;;41.88;;
52742;SDS011;55583;53.012;6.556;2022-09-12T04:44:45;127.47;;;46.03;;
52742;SDS011;55583;53.012;6.556;2022-09-12T04:47:12;96.60;;;45.53;;
52742;SDS011;55583;53.012;6.556;2022-09-12T04:49:38;136.52;;;50.30;;
52742;SDS011;55583;53.012;6.556;2022-09-12T04:52:03;124.88;;;49.38;;
52742;SDS011;55583;53.012;6.556;2022-09-12T04:54:29;98.72;;;43.72;;
52742;SDS011;55583;53.012;6.556;2022-09-12T04:56:54;118.22;;;48.97;;
52742;SDS011;55583;53.012;6.556;2022-09-12T04:59:20;123.20;;;49.70;;
52742;SDS011;55583;53.012;6.556;2022-09-12T05:01:47;104.65;;;46.05;;
52742;SDS011;55583;53.012;6.556;2022-09-12T05:04:12;104.78;;;45.60;;
52742;SDS011;55583;53.012;6.556;2022-09-12T05:06:38;130.00;;;51.45;;
52742;SDS011;55583;53.012;6.556;2022-09-12T05:09:06;115.60;;;49.38;;
52742;SDS011;55583;53.012;6.556;2022-09-12T05:11:36;117.32;;;47.85;;
52742;SDS011;55583;53.012;6.556;2022-09-12T05:14:03;100.60;;;44.35;;
52742;SDS011;55583;53.012;6.556;2022-09-12T05:16:29;114.22;;;48.10;;
52742;SDS011;55583;53.012;6.556;2022-09-12T05:18:56;109.78;;;48.40;;
52742;SDS011;55583;53.012;6.556;2022-09-12T05:21:22;135.48;;;54.20;;
52742;SDS011;55583;53.012;6.556;2022-09-12T05:23:52;108.10;;;49.50;;
52742;SDS011;55583;53.012;6.556;2022-09-12T05:26:19;123.07;;;52.92;;
52742;SDS011;55583;53.012;6.556;2022-09-12T05:28:47;103.25;;;46.15;;
52742;SDS011;55583;53.012;6.556;2022-09-12T05:31:14;123.60;;;52.65;;
52742;SDS011;55583;53.012;6.556;2022-09-12T05:33:45;116.35;;;49.22;;
52742;SDS011;55583;53.012;6.556;2022-09-12T05:36:16;111.00;;;47.03;;
52742;SDS011;55583;53.012;6.556;2022-09-12T05:38:44;98.72;;;48.50;;
52742;SDS011;55583;53.012;6.556;2022-09-12T05:41:11;107.10;;;48.97;;
52742;SDS011;55583;53.012;6.556;2022-09-12T05:43:39;97.65;;;48.47;;
52742;SDS011;55583;53.012;6.556;2022-09-12T05:46:16;96.70;;;48.25;;
52742;SDS011;55583;53.012;6.556;2022-09-12T05:48:43;96.55;;;47.83;;
52742;SDS011;55583;53.012;6.556;2022-09-12T05:51:17;100.45;;;47.63;;
52742;SDS011;55583;53.012;6.556;2022-09-12T05:53:45;99.20;;;48.63;;
52742;SDS011;55583;53.012;6.556;2022-09-12T05:56:13;103.40;;;47.13;;
52742;SDS011;55583;53.012;6.556;2022-09-12T05:58:41;85.03;;;46.30;;
52742;SDS011;55583;53.012;6.556;2022-09-12T06:01:14;91.70;;;50.10;;
52742;SDS011;55583;53.012;6.556;2022-09-12T06:03:42;89.85;;;47.55;;
52742;SDS011;55583;53.012;6.556;2022-09-12T06:06:08;99.10;;;48.78;;
52742;SDS011;55583;53.012;6.556;2022-09-12T06:08:37;91.93;;;48.72;;
52742;SDS011;55583;53.012;6.556;2022-09-12T06:11:05;88.18;;;47.88;;
52742;SDS011;55583;53.012;6.556;2022-09-12T06:13:32;86.00;;;45.03;;
52742;SDS011;55583;53.012;6.556;2022-09-12T06:18:34;83.63;;;47.30;;
52742;SDS011;55583;53.012;6.556;2022-09-12T06:23:30;91.95;;;49.30;;
52742;SDS011;55583;53.012;6.556;2022-09-12T06:25:56;83.30;;;46.28;;
52742;SDS011;55583;53.012;6.556;2022-09-12T06:28:22;80.22;;;47.65;;
52742;SDS011;55583;53.012;6.556;2022-09-12T06:30:48;86.70;;;47.72;;
52742;SDS011;55583;53.012;6.556;2022-09-12T06:33:14;85.05;;;46.30;;
52742;SDS011;55583;53.012;6.556;2022-09-12T06:35:40;83.18;;;47.53;;
52742;SDS011;55583;53.012;6.556;2022-09-12T06:38:06;85.90;;;46.65;;
52742;SDS011;55583;53.012;6.556;2022-09-12T06:40:34;70.13;;;43.70;;
52742;SDS011;55583;53.012;6.556;2022-09-12T06:43:05;81.25;;;46.55;;
52742;SDS011;55583;53.012;6.556;2022-09-12T06:45:31;83.45;;;46.22;;
52742;SDS011;55583;53.012;6.556;2022-09-12T06:47:56;78.80;;;45.40;;
52742;SDS011;55583;53.012;6.556;2022-09-12T06:50:22;82.00;;;47.45;;
52742;SDS011;55583;53.012;6.556;2022-09-12T06:52:48;74.78;;;44.97;;
52742;SDS011;55583;53.012;6.556;2022-09-12T06:55:15;75.55;;;44.78;;
52742;SDS011;55583;53.012;6.556;2022-09-12T06:57:41;76.63;;;45.72;;
52742;SDS011;55583;53.012;6.556;2022-09-12T07:00:08;76.68;;;44.53;;
52742;SDS011;55583;53.012;6.556;2022-09-12T07:02:34;76.63;;;44.38;;
52742;SDS011;55583;53.012;6.556;2022-09-12T07:05:00;76.63;;;45.20;;
52742;SDS011;55583;53.012;6.556;2022-09-12T07:07:25;75.63;;;44.95;;
52742;SDS011;55583;53.012;6.556;2022-09-12T07:09:51;74.78;;;45.10;;
52742;SDS011;55583;53.012;6.556;2022-09-12T07:12:17;75.85;;;45.47;;
52742;SDS011;55583;53.012;6.556;2022-09-12T07:14:43;67.80;;;43.33;;
52742;SDS011;55583;53.012;6.556;2022-09-12T07:17:08;77.43;;;44.97;;
52742;SDS011;55583;53.012;6.556;2022-09-12T07:19:34;82.05;;;47.05;;
52742;SDS011;55583;53.012;6.556;2022-09-12T07:21:59;72.80;;;45.03;;
52742;SDS011;55583;53.012;6.556;2022-09-12T07:24:25;69.38;;;44.65;;
52742;SDS011;55583;53.012;6.556;2022-09-12T07:26:51;71.85;;;43.30;;
52742;SDS011;55583;53.012;6.556;2022-09-12T07:29:16;68.88;;;43.25;;
52742;SDS011;55583;53.012;6.556;2022-09-12T07:31:42;67.78;;;42.13;;
52742;SDS011;55583;53.012;6.556;2022-09-12T07:34:08;61.95;;;39.55;;
52742;SDS011;55583;53.012;6.556;2022-09-12T07:36:34;61.33;;;40.65;;
52742;SDS011;55583;53.012;6.556;2022-09-12T07:39:00;65.47;;;41.45;;
52742;SDS011;55583;53.012;6.556;2022-09-12T07:41:27;60.58;;;38.97;;
52742;SDS011;55583;53.012;6.556;2022-09-12T07:43:55;49.28;;;35.85;;
52742;SDS011;55583;53.012;6.556;2022-09-12T07:46:22;53.08;;;35.10;;
52742;SDS011;55583;53.012;6.556;2022-09-12T07:48:53;52.08;;;35.47;;
52742;SDS011;55583;53.012;6.556;2022-09-12T07:51:20;60.35;;;37.10;;
52742;SDS011;55583;53.012;6.556;2022-09-12T07:53:47;46.67;;;33.33;;
52742;SDS011;55583;53.012;6.556;2022-09-12T07:56:13;51.38;;;33.33;;
52742;SDS011;55583;53.012;6.556;2022-09-12T07:58:40;56.85;;;36.60;;
52742;SDS011;55583;53.012;6.556;2022-09-12T08:01:10;50.92;;;33.90;;
52742;SDS011;55583;53.012;6.556;2022-09-12T08:03:38;48.10;;;34.03;;
52742;SDS011;55583;53.012;6.556;2022-09-12T08:06:08;55.25;;;34.50;;
52742;SDS011;55583;53.012;6.556;2022-09-12T08:08:35;53.05;;;34.30;;
52742;SDS011;55583;53.012;6.556;2022-09-12T08:11:04;43.75;;;31.13;;
52742;SDS011;55583;53.012;6.556;2022-09-12T08:13:32;45.50;;;31.63;;
52742;SDS011;55583;53.012;6.556;2022-09-12T08:16:00;48.00;;;29.75;;
52742;SDS011;55583;53.012;6.556;2022-09-12T08:18:27;47.92;;;31.58;;
52742;SDS011;55583;53.012;6.556;2022-09-12T08:20:55;44.90;;;29.42;;
52742;SDS011;55583;53.012;6.556;2022-09-12T08:23:21;44.03;;;30.90;;
52742;SDS011;55583;53.012;6.556;2022-09-12T08:25:48;40.95;;;29.98;;
52742;SDS011;55583;53.012;6.556;2022-09-12T08:28:14;43.63;;;28.52;;
52742;SDS011;55583;53.012;6.556;2022-09-12T08:30:39;37.50;;;27.83;;
52742;SDS011;55583;53.012;6.556;2022-09-12T08:33:05;40.28;;;29.25;;
52742;SDS011;55583;53.012;6.556;2022-09-12T08:35:31;39.78;;;27.35;;
52742;SDS011;55583;53.012;6.556;2022-09-12T08:37:57;40.45;;;27.08;;
52742;SDS011;55583;53.012;6.556;2022-09-12T08:40:23;36.08;;;25.27;;
52742;SDS011;55583;53.012;6.556;2022-09-12T08:45:32;42.03;;;28.23;;
52742;SDS011;55583;53.012;6.556;2022-09-12T08:48:03;39.22;;;26.08;;
52742;SDS011;55583;53.012;6.556;2022-09-12T08:50:30;40.17;;;26.60;;
52742;SDS011;55583;53.012;6.556;2022-09-12T08:55:41;38.75;;;26.70;;
52742;SDS011;55583;53.012;6.556;2022-09-12T08:58:16;42.83;;;26.02;;
52742;SDS011;55583;53.012;6.556;2022-09-12T09:03:55;42.63;;;26.58;;
52742;SDS011;55583;53.012;6.556;2022-09-12T09:07:04;42.63;;;26.38;;
52742;SDS011;55583;53.012;6.556;2022-09-12T09:22:50;38.22;;;27.63;;
52742;SDS011;55583;53.012;6.556;2022-09-12T09:25:22;43.70;;;28.85;;
52742;SDS011;55583;53.012;6.556;2022-09-12T09:28:01;50.15;;;31.23;;
52742;SDS011;55583;53.012;6.556;2022-09-12T09:30:31;40.25;;;28.58;;
52742;SDS011;55583;53.012;6.556;2022-09-12T09:33:00;41.15;;;29.67;;
52742;SDS011;55583;53.012;6.556;2022-09-12T09:38:29;45.75;;;29.27;;
52742;SDS011;55583;53.012;6.556;2022-09-12T09:43:50;50.78;;;31.05;;
52742;SDS011;55583;53.012;6.556;2022-09-12T09:46:16;45.40;;;32.03;;
52742;SDS011;55583;53.012;6.556;2022-09-12T09:48:43;49.10;;;33.20;;
52742;SDS011;55583;53.012;6.556;2022-09-12T09:51:12;44.15;;;32.10;;
52742;SDS011;55583;53.012;6.556;2022-09-12T09:53:52;46.17;;;33.42;;
52742;SDS011;55583;53.012;6.556;2022-09-12T09:59:09;47.78;;;32.75;;
52742;SDS011;55583;53.012;6.556;2022-09-12T10:04:41;44.10;;;31.17;;
52742;SDS011;55583;53.012;6.556;2022-09-12T10:07:19;49.80;;;32.80;;
52742;SDS011;55583;53.012;6.556;2022-09-12T10:12:43;42.65;;;29.00;;
52742;SDS011;55583;53.012;6.556;2022-09-12T10:15:19;41.13;;;28.70;;
52742;SDS011;55583;53.012;6.556;2022-09-12T10:17:47;38.60;;;27.23;;
52742;SDS011;55583;53.012;6.556;2022-09-12T10:23:19;40.42;;;28.77;;
52742;SDS011;55583;53.012;6.556;2022-09-12T10:25:46;37.70;;;26.40;;
52742;SDS011;55583;53.012;6.556;2022-09-12T10:28:22;36.85;;;25.27;;
52742;SDS011;55583;53.012;6.556;2022-09-12T10:30:51;34.30;;;26.17;;
52742;SDS011;55583;53.012;6.556;2022-09-12T10:33:19;31.20;;;22.33;;
52742;SDS011;55583;53.012;6.556;2022-09-12T10:35:46;28.15;;;21.98;;
52742;SDS011;55583;53.012;6.556;2022-09-12T10:38:20;27.95;;;22.08;;
52742;SDS011;55583;53.012;6.556;2022-09-12T10:40:53;29.52;;;22.50;;
52742;SDS011;55583;53.012;6.556;2022-09-12T10:43:37;22.00;;;17.23;;
52742;SDS011;55583;53.012;6.556;2022-09-12T10:48:41;23.92;;;20.10;;
52742;SDS011;55583;53.012;6.556;2022-09-12T10:53:54;22.92;;;18.25;;
52742;SDS011;55583;53.012;6.556;2022-09-12T11:18:09;15.32;;;11.52;;
52742;SDS011;55583;53.012;6.556;2022-09-12T11:27:11;14.68;;;12.82;;
52742;SDS011;55583;53.012;6.556;2022-09-12T11:29:36;15.23;;;13.52;;
52742;SDS011;55583;53.012;6.556;2022-09-12T11:40:52;10.45;;;6.97;;
52742;SDS011;55583;53.012;6.556;2022-09-12T11:46:36;10.52;;;8.65;;
52742;SDS011;55583;53.012;6.556;2022-09-12T12:00:04;10.32;;;8.55;;
52742;SDS011;55583;53.012;6.556;2022-09-12T12:02:39;15.07;;;11.20;;
52742;SDS011;55583;53.012;6.556;2022-09-12T12:08:16;16.58;;;10.10;;
52742;SDS011;55583;53.012;6.556;2022-09-12T12:10:55;13.38;;;11.98;;
52742;SDS011;55583;53.012;6.556;2022-09-12T12:13:32;16.58;;;11.18;;
52742;SDS011;55583;53.012;6.556;2022-09-12T12:16:03;14.00;;;9.65;;
52742;SDS011;55583;53.012;6.556;2022-09-12T12:18:56;16.08;;;9.80;;
52742;SDS011;55583;53.012;6.556;2022-09-12T12:21:37;9.73;;;8.73;;
52742;SDS011;55583;53.012;6.556;2022-09-12T12:24:23;11.38;;;9.15;;
52742;SDS011;55583;53.012;6.556;2022-09-12T12:26:59;13.35;;;8.15;;
52742;SDS011;55583;53.012;6.556;2022-09-12T12:29:46;8.77;;;6.72;;
52742;SDS011;55583;53.012;6.556;2022-09-12T12:34:41;7.35;;;6.55;;
52742;SDS011;55583;53.012;6.556;2022-09-12T12:37:53;9.82;;;7.53;;
52742;SDS011;55583;53.012;6.556;2022-09-12T12:47:53;11.13;;;8.32;;
52742;SDS011;55583;53.012;6.556;2022-09-12T12:50:23;11.83;;;8.07;;
52742;SDS011;55583;53.012;6.556;2022-09-12T12:53:05;9.38;;;8.35;;
52742;SDS011;55583;53.012;6.556;2022-09-12T12:58:55;11.45;;;8.23;;
52742;SDS011;55583;53.012;6.556;2022-09-12T13:03:35;9.48;;;6.57;;
52742;SDS011;55583;53.012;6.556;2022-09-12T13:06:04;7.22;;;5.95;;
52742;SDS011;55583;53.012;6.556;2022-09-12T13:08:32;9.43;;;6.32;;
52742;SDS011;55583;53.012;6.556;2022-09-12T13:11:13;11.68;;;7.78;;
52742;SDS011;55583;53.012;6.556;2022-09-12T13:13:51;9.25;;;7.10;;
52742;SDS011;55583;53.012;6.556;2022-09-12T13:16:30;8.90;;;6.75;;
52742;SDS011;55583;53.012;6.556;2022-09-12T13:19:12;9.60;;;5.78;;
52742;SDS011;55583;53.012;6.556;2022-09-12T13:21:53;8.63;;;6.55;;
52742;SDS011;55583;53.012;6.556;2022-09-12T13:24:25;7.30;;;5.70;;
52742;SDS011;55583;53.012;6.556;2022-09-12T13:26:51;8.10;;;6.70;;
52742;SDS011;55583;53.012;6.556;2022-09-12T13:29:21;5.40;;;4.90;;
52742;SDS011;55583;53.012;6.556;2022-09-12T13:31:52;7.43;;;5.47;;
52742;SDS011;55583;53.012;6.556;2022-09-12T13:34:21;9.40;;;4.45;;
52742;SDS011;55583;53.012;6.556;2022-09-12T13:37:04;5.70;;;4.68;;
52742;SDS011;55583;53.012;6.556;2022-09-12T13:45:06;8.32;;;4.32;;
52742;SDS011;55583;53.012;6.556;2022-09-12T13:47:43;7.45;;;3.83;;
52742;SDS011;55583;53.012;6.556;2022-09-12T13:50:24;4.75;;;3.53;;
52742;SDS011;55583;53.012;6.556;2022-09-12T13:52:52;7.82;;;4.07;;
52742;SDS011;55583;53.012;6.556;2022-09-12T13:55:31;7.07;;;3.90;;
52742;SDS011;55583;53.012;6.556;2022-09-12T13:58:03;6.10;;;3.90;;
52742;SDS011;55583;53.012;6.556;2022-09-12T14:00:31;5.07;;;3.88;;
52742;SDS011;55583;53.012;6.556;2022-09-12T14:02:59;6.07;;;4.88;;
52742;SDS011;55583;53.012;6.556;2022-09-12T14:05:44;5.57;;;4.80;;
52742;SDS011;55583;53.012;6.556;2022-09-12T14:08:19;5.10;;;4.60;;
52742;SDS011;55583;53.012;6.556;2022-09-12T14:10:47;5.75;;;5.13;;
52742;SDS011;55583;53.012;6.556;2022-09-12T14:13:18;7.50;;;5.18;;
52742;SDS011;55583;53.012;6.556;2022-09-12T14:15:49;6.85;;;5.78;;
52742;SDS011;55583;53.012;6.556;2022-09-12T14:18:24;7.05;;;5.45;;
52742;SDS011;55583;53.012;6.556;2022-09-12T14:20:52;8.15;;;5.22;;
52742;SDS011;55583;53.012;6.556;2022-09-12T14:23:30;7.03;;;5.85;;
52742;SDS011;55583;53.012;6.556;2022-09-12T14:25:59;9.05;;;6.35;;
52742;SDS011;55583;53.012;6.556;2022-09-12T14:28:27;12.63;;;7.63;;
52742;SDS011;55583;53.012;6.556;2022-09-12T14:33:25;9.32;;;7.05;;
52742;SDS011;55583;53.012;6.556;2022-09-12T14:36:04;7.80;;;4.95;;
52742;SDS011;55583;53.012;6.556;2022-09-12T14:38:34;6.53;;;5.90;;
52742;SDS011;55583;53.012;6.556;2022-09-12T14:41:08;6.93;;;6.33;;
52742;SDS011;55583;53.012;6.556;2022-09-12T14:43:44;6.30;;;5.70;;
52742;SDS011;55583;53.012;6.556;2022-09-12T14:46:22;7.22;;;5.13;;
52742;SDS011;55583;53.012;6.556;2022-09-12T14:48:53;6.47;;;5.63;;
52742;SDS011;55583;53.012;6.556;2022-09-12T14:51:24;6.45;;;5.45;;
52742;SDS011;55583;53.012;6.556;2022-09-12T14:54:02;7.70;;;6.93;;
52742;SDS011;55583;53.012;6.556;2022-09-12T14:56:39;9.23;;;6.18;;
52742;SDS011;55583;53.012;6.556;2022-09-12T14:59:22;7.78;;;5.50;;
52742;SDS011;55583;53.012;6.556;2022-09-12T15:04:38;6.63;;;5.82;;
52742;SDS011;55583;53.012;6.556;2022-09-12T15:07:14;5.22;;;4.72;;
52742;SDS011;55583;53.012;6.556;2022-09-12T15:09:52;7.72;;;5.30;;
52742;SDS011;55583;53.012;6.556;2022-09-12T15:12:17;7.60;;;4.93;;
52742;SDS011;55583;53.012;6.556;2022-09-12T15:14:43;8.60;;;4.70;;
52742;SDS011;55583;53.012;6.556;2022-09-12T15:17:09;9.85;;;4.90;;
52742;SDS011;55583;53.012;6.556;2022-09-12T15:19:34;6.72;;;4.20;;
52742;SDS011;55583;53.012;6.556;2022-09-12T15:22:00;5.88;;;4.18;;
52742;SDS011;55583;53.012;6.556;2022-09-12T15:24:25;4.45;;;4.05;;
52742;SDS011;55583;53.012;6.556;2022-09-12T15:26:51;6.75;;;3.80;;
52742;SDS011;55583;53.012;6.556;2022-09-12T15:29:17;4.45;;;3.13;;
52742;SDS011;55583;53.012;6.556;2022-09-12T15:31:45;7.72;;;4.80;;
52742;SDS011;55583;53.012;6.556;2022-09-12T15:34:11;6.53;;;4.35;;
52742;SDS011;55583;53.012;6.556;2022-09-12T15:36:36;6.00;;;3.70;;
52742;SDS011;55583;53.012;6.556;2022-09-12T15:39:02;3.78;;;3.40;;
52742;SDS011;55583;53.012;6.556;2022-09-12T15:41:32;4.78;;;3.50;;
52742;SDS011;55583;53.012;6.556;2022-09-12T15:44:02;4.88;;;2.78;;
52742;SDS011;55583;53.012;6.556;2022-09-12T15:46:29;8.20;;;3.50;;
52742;SDS011;55583;53.012;6.556;2022-09-12T15:48:55;2.90;;;2.70;;
52742;SDS011;55583;53.012;6.556;2022-09-12T15:51:20;5.50;;;3.22;;
52742;SDS011;55583;53.012;6.556;2022-09-12T15:53:47;5.93;;;3.33;;
52742;SDS011;55583;53.012;6.556;2022-09-12T15:56:17;4.60;;;2.95;;
52742;SDS011;55583;53.012;6.556;2022-09-12T15:58:45;5.32;;;3.10;;
52742;SDS011;55583;53.012;6.556;2022-09-12T16:01:11;5.43;;;3.17;;
52742;SDS011;55583;53.012;6.556;2022-09-12T16:03:38;3.22;;;2.88;;
52742;SDS011;55583;53.012;6.556;2022-09-12T16:06:06;2.90;;;2.60;;
52742;SDS011;55583;53.012;6.556;2022-09-12T16:08:33;3.70;;;3.00;;
52742;SDS011;55583;53.012;6.556;2022-09-12T16:11:00;6.63;;;2.92;;
52742;SDS011;55583;53.012;6.556;2022-09-12T16:13:29;5.15;;;3.10;;
52742;SDS011;55583;53.012;6.556;2022-09-12T16:15:59;4.28;;;2.92;;
52742;SDS011;55583;53.012;6.556;2022-09-12T16:18:25;3.67;;;2.65;;
52742;SDS011;55583;53.012;6.556;2022-09-12T16:20:52;3.28;;;2.85;;
52742;SDS011;55583;53.012;6.556;2022-09-12T16:23:18;4.70;;;2.90;;
52742;SDS011;55583;53.012;6.556;2022-09-12T16:25:44;5.05;;;3.00;;
52742;SDS011;55583;53.012;6.556;2022-09-12T16:28:10;3.58;;;3.10;;
52742;SDS011;55583;53.012;6.556;2022-09-12T16:30:36;7.07;;;2.88;;
52742;SDS011;55583;53.012;6.556;2022-09-12T16:33:01;5.00;;;2.88;;
52742;SDS011;55583;53.012;6.556;2022-09-12T16:35:27;6.30;;;3.10;;
52742;SDS011;55583;53.012;6.556;2022-09-12T16:37:55;8.30;;;3.30;;
52742;SDS011;55583;53.012;6.556;2022-09-12T16:40:21;5.43;;;2.60;;
52742;SDS011;55583;53.012;6.556;2022-09-12T16:42:47;5.20;;;3.03;;
52742;SDS011;55583;53.012;6.556;2022-09-12T16:45:13;5.72;;;3.08;;
52742;SDS011;55583;53.012;6.556;2022-09-12T16:47:39;4.90;;;3.10;;
52742;SDS011;55583;53.012;6.556;2022-09-12T16:50:04;4.18;;;2.92;;
52742;SDS011;55583;53.012;6.556;2022-09-12T16:52:32;7.10;;;2.92;;
52742;SDS011;55583;53.012;6.556;2022-09-12T16:54:58;4.93;;;3.03;;
52742;SDS011;55583;53.012;6.556;2022-09-12T16:57:24;4.07;;;2.88;;
52742;SDS011;55583;53.012;6.556;2022-09-12T16:59:49;3.60;;;3.20;;
52742;SDS011;55583;53.012;6.556;2022-09-12T17:02:16;4.78;;;3.08;;
52742;SDS011;55583;53.012;6.556;2022-09-12T17:04:41;6.65;;;2.80;;
52742;SDS011;55583;53.012;6.556;2022-09-12T17:07:07;2.88;;;2.63;;
52742;SDS011;55583;53.012;6.556;2022-09-12T17:09:33;5.40;;;3.38;;
52742;SDS011;55583;53.012;6.556;2022-09-12T17:11:59;4.38;;;2.83;;
52742;SDS011;55583;53.012;6.556;2022-09-12T17:14:25;5.60;;;3.10;;
52742;SDS011;55583;53.012;6.556;2022-09-12T17:16:51;8.65;;;3.20;;
52742;SDS011;55583;53.012;6.556;2022-09-12T17:19:21;4.78;;;3.58;;
52742;SDS011;55583;53.012;6.556;2022-09-12T17:21:50;6.43;;;3.38;;
52742;SDS011;55583;53.012;6.556;2022-09-12T17:24:17;6.30;;;3.10;;
52742;SDS011;55583;53.012;6.556;2022-09-12T17:26:43;4.63;;;3.30;;
52742;SDS011;55583;53.012;6.556;2022-09-12T17:29:10;4.93;;;3.80;;
52742;SDS011;55583;53.012;6.556;2022-09-12T17:31:36;3.97;;;2.97;;
52742;SDS011;55583;53.012;6.556;2022-09-12T17:34:02;6.13;;;3.58;;